메인 페이지
METAR-TAF:

METAR-TAF

공항 :

테구시갈파, 온두라스

위도: 14-03N, 경도: 087-13W, 고도: 994m

현재 날씨관측

예보는 43분 전, 12:00시(UTC)에 발표되었습니다.
무풍
온도 17°C
습도 100%
기압 1019 hPa
시정 10km 이상
고도 800ft 상공 구름 조금
고도 8000ft 상공 구름 많음

METAR: MHTG 221200Z 00000KT 9999 FEW008 BKN080 17/17 Q1019 A3009 NOSIG

시각: 06:43 (12:43 UTC)

예보

예보는 2 시간 28분 전, 10:15시(UTC)에 발표되었습니다.
예보 대상 시간: 22일 12시부터 23일 12시까지 (UTC)
kt
시정 10km 이상
고도 1000ft 상공 구름 조금
고도 2000ft 상공 구름 보통
고도 8000ft 상공 구름 많음
전환 중
22일 14시부터 22일 16시까지 (UTC)
고도 2600ft 상공 구름 보통
고도 8000ft 상공 구름 보통
일시적
22일 20시부터 23일 02시까지 (UTC)
남남동4kt
시정: 5000m
고도 2800ft 상공 구름 보통, 타워링 적운.
고도 3000ft 상공 구름 보통, 적란운.
고도 8000ft 상공 구름 보통
전환 중
23일 02시부터 23일 04시까지 (UTC)
kt
고도 2600ft 상공 구름 보통
고도 2800ft 상공 구름 보통, 적란운.
고도 8000ft 상공 구름 많음
전환 중
23일 06시부터 23일 08시까지 (UTC)
시정 10km 이상
고도 1000ft 상공 구름 조금
고도 2400ft 상공 구름 보통
고도 8000ft 상공 구름 보통

TAF: MHTG 221015Z 2212/2312 00000KT 9999 FEW010 SCT020 BKN080 TX28/2219Z TN18/2312Z BECMG 2214/2216 SCT026 SCT080 TEMPO 2220/2302 16004KT 5000 TSSHRA SCT028TCU SCT030CB SCT080 BECMG 2302/2304 00000KT SCT026 SCT028CB BKN080 BECMG 2306/2308 9999 NSW FEW010 SCT024 SCT080

4,000개 이상의 공항 관측 자료 및 예보 (METAR 및 TAF 보고).

지도상에서 검색 가능한 기상관측소가 노란 점과 빨간 점으로 표시되어 있습니다.

기상관측소 명을 보려면 표시 위로 마우스를 이동하세요.

날씨 관측과 예보를 보려면 클릭하세요.

지도 변경 : 확대하려면 엑스 표시가 있는 녹색 버튼, 축소하려면 빼기 표시가 있는 녹색 버튼, 다음 페이지의 지도를 보려면 녹색 화살표를 클릭하세요.


METAR-TAF: